sensor_id;sensor_type;location;lat;lon;timestamp;P1;durP1;ratioP1;P2;durP2;ratioP2
15488;SDS011;7846;48.830;9.116;2023-04-24T00:00:00;0.63;;;0.63;;
15488;SDS011;7846;48.830;9.116;2023-04-24T00:02:44;0.90;;;0.90;;
15488;SDS011;7846;48.830;9.116;2023-04-24T00:05:30;0.90;;;0.70;;
15488;SDS011;7846;48.830;9.116;2023-04-24T00:08:15;0.70;;;0.70;;
15488;SDS011;7846;48.830;9.116;2023-04-24T00:10:59;0.60;;;0.57;;
15488;SDS011;7846;48.830;9.116;2023-04-24T00:13:43;2.43;;;0.70;;
15488;SDS011;7846;48.830;9.116;2023-04-24T00:16:28;2.60;;;0.80;;
15488;SDS011;7846;48.830;9.116;2023-04-24T00:19:12;1.73;;;0.67;;
15488;SDS011;7846;48.830;9.116;2023-04-24T00:21:56;0.60;;;0.60;;
15488;SDS011;7846;48.830;9.116;2023-04-24T00:24:40;0.73;;;0.60;;
15488;SDS011;7846;48.830;9.116;2023-04-24T00:27:24;1.03;;;0.73;;
15488;SDS011;7846;48.830;9.116;2023-04-24T00:30:08;1.20;;;0.70;;
15488;SDS011;7846;48.830;9.116;2023-04-24T00:32:52;1.63;;;0.67;;
15488;SDS011;7846;48.830;9.116;2023-04-24T00:35:36;0.60;;;0.60;;
15488;SDS011;7846;48.830;9.116;2023-04-24T00:38:20;2.70;;;0.77;;
15488;SDS011;7846;48.830;9.116;2023-04-24T00:41:05;2.37;;;0.63;;
15488;SDS011;7846;48.830;9.116;2023-04-24T00:43:49;0.60;;;0.60;;
15488;SDS011;7846;48.830;9.116;2023-04-24T00:46:33;1.57;;;0.77;;
15488;SDS011;7846;48.830;9.116;2023-04-24T00:49:18;1.57;;;0.80;;
15488;SDS011;7846;48.830;9.116;2023-04-24T00:52:02;0.97;;;0.77;;
15488;SDS011;7846;48.830;9.116;2023-04-24T00:54:51;1.27;;;0.70;;
15488;SDS011;7846;48.830;9.116;2023-04-24T00:57:35;1.47;;;0.70;;
15488;SDS011;7846;48.830;9.116;2023-04-24T01:00:19;1.60;;;0.97;;
15488;SDS011;7846;48.830;9.116;2023-04-24T01:03:04;3.83;;;0.80;;
15488;SDS011;7846;48.830;9.116;2023-04-24T01:05:49;1.80;;;0.73;;
15488;SDS011;7846;48.830;9.116;2023-04-24T01:08:34;1.03;;;0.70;;
15488;SDS011;7846;48.830;9.116;2023-04-24T01:11:18;2.77;;;0.63;;
15488;SDS011;7846;48.830;9.116;2023-04-24T01:14:02;1.70;;;0.70;;
15488;SDS011;7846;48.830;9.116;2023-04-24T01:16:46;0.77;;;0.77;;
15488;SDS011;7846;48.830;9.116;2023-04-24T01:19:30;0.70;;;0.60;;
15488;SDS011;7846;48.830;9.116;2023-04-24T01:22:14;1.07;;;0.90;;
15488;SDS011;7846;48.830;9.116;2023-04-24T01:24:59;1.40;;;0.70;;
15488;SDS011;7846;48.830;9.116;2023-04-24T01:27:43;0.70;;;0.60;;
15488;SDS011;7846;48.830;9.116;2023-04-24T01:30:27;1.40;;;0.80;;
15488;SDS011;7846;48.830;9.116;2023-04-24T01:33:11;1.13;;;0.60;;
15488;SDS011;7846;48.830;9.116;2023-04-24T01:35:55;1.17;;;0.70;;
15488;SDS011;7846;48.830;9.116;2023-04-24T01:38:39;0.80;;;0.73;;
15488;SDS011;7846;48.830;9.116;2023-04-24T01:41:24;0.83;;;0.80;;
15488;SDS011;7846;48.830;9.116;2023-04-24T01:44:08;2.20;;;1.10;;
15488;SDS011;7846;48.830;9.116;2023-04-24T01:46:52;2.13;;;0.70;;
15488;SDS011;7846;48.830;9.116;2023-04-24T01:49:40;1.00;;;0.90;;
15488;SDS011;7846;48.830;9.116;2023-04-24T01:52:24;0.83;;;0.83;;
15488;SDS011;7846;48.830;9.116;2023-04-24T01:55:08;0.70;;;0.70;;
15488;SDS011;7846;48.830;9.116;2023-04-24T01:57:52;1.33;;;0.70;;
15488;SDS011;7846;48.830;9.116;2023-04-24T02:00:39;1.50;;;0.57;;
15488;SDS011;7846;48.830;9.116;2023-04-24T02:03:22;0.93;;;0.70;;
15488;SDS011;7846;48.830;9.116;2023-04-24T02:06:06;0.83;;;0.70;;
15488;SDS011;7846;48.830;9.116;2023-04-24T02:08:50;1.33;;;0.67;;
15488;SDS011;7846;48.830;9.116;2023-04-24T02:11:34;1.73;;;0.70;;
15488;SDS011;7846;48.830;9.116;2023-04-24T02:14:18;2.23;;;0.77;;
15488;SDS011;7846;48.830;9.116;2023-04-24T02:17:04;1.53;;;0.60;;
15488;SDS011;7846;48.830;9.116;2023-04-24T02:19:48;1.40;;;0.80;;
15488;SDS011;7846;48.830;9.116;2023-04-24T02:22:32;0.87;;;0.73;;
15488;SDS011;7846;48.830;9.116;2023-04-24T02:25:16;1.53;;;0.80;;
15488;SDS011;7846;48.830;9.116;2023-04-24T02:28:01;1.07;;;0.80;;
15488;SDS011;7846;48.830;9.116;2023-04-24T02:30:46;0.60;;;0.60;;
15488;SDS011;7846;48.830;9.116;2023-04-24T02:33:30;0.83;;;0.70;;
15488;SDS011;7846;48.830;9.116;2023-04-24T02:36:15;2.00;;;1.00;;
15488;SDS011;7846;48.830;9.116;2023-04-24T02:38:59;1.73;;;0.73;;
15488;SDS011;7846;48.830;9.116;2023-04-24T02:41:45;1.23;;;0.67;;
15488;SDS011;7846;48.830;9.116;2023-04-24T02:44:29;1.20;;;0.70;;
15488;SDS011;7846;48.830;9.116;2023-04-24T02:47:13;0.57;;;0.57;;
15488;SDS011;7846;48.830;9.116;2023-04-24T02:49:58;1.17;;;0.60;;
15488;SDS011;7846;48.830;9.116;2023-04-24T02:52:43;0.70;;;0.70;;
15488;SDS011;7846;48.830;9.116;2023-04-24T02:55:27;1.07;;;0.80;;
15488;SDS011;7846;48.830;9.116;2023-04-24T02:58:11;1.03;;;0.60;;
15488;SDS011;7846;48.830;9.116;2023-04-24T03:00:56;1.60;;;0.70;;
15488;SDS011;7846;48.830;9.116;2023-04-24T03:03:41;2.57;;;0.80;;
15488;SDS011;7846;48.830;9.116;2023-04-24T03:06:26;0.70;;;0.70;;
15488;SDS011;7846;48.830;9.116;2023-04-24T03:09:11;0.97;;;0.70;;
15488;SDS011;7846;48.830;9.116;2023-04-24T03:11:57;2.00;;;0.80;;
15488;SDS011;7846;48.830;9.116;2023-04-24T03:14:42;2.43;;;0.80;;
15488;SDS011;7846;48.830;9.116;2023-04-24T03:17:27;0.97;;;0.80;;
15488;SDS011;7846;48.830;9.116;2023-04-24T03:20:11;0.90;;;0.80;;
15488;SDS011;7846;48.830;9.116;2023-04-24T03:22:55;0.90;;;0.83;;
15488;SDS011;7846;48.830;9.116;2023-04-24T03:25:40;0.80;;;0.70;;
15488;SDS011;7846;48.830;9.116;2023-04-24T03:28:26;1.03;;;0.90;;
15488;SDS011;7846;48.830;9.116;2023-04-24T03:31:10;1.60;;;0.83;;
15488;SDS011;7846;48.830;9.116;2023-04-24T03:33:54;1.10;;;0.87;;
15488;SDS011;7846;48.830;9.116;2023-04-24T03:36:38;1.27;;;0.80;;
15488;SDS011;7846;48.830;9.116;2023-04-24T03:39:22;0.70;;;0.70;;
15488;SDS011;7846;48.830;9.116;2023-04-24T03:42:06;0.70;;;0.70;;
15488;SDS011;7846;48.830;9.116;2023-04-24T03:44:50;0.57;;;0.57;;
15488;SDS011;7846;48.830;9.116;2023-04-24T03:47:34;0.77;;;0.60;;
15488;SDS011;7846;48.830;9.116;2023-04-24T03:50:19;1.80;;;0.70;;
15488;SDS011;7846;48.830;9.116;2023-04-24T03:53:03;0.63;;;0.60;;
15488;SDS011;7846;48.830;9.116;2023-04-24T03:55:48;0.90;;;0.70;;
15488;SDS011;7846;48.830;9.116;2023-04-24T03:58:31;1.17;;;0.80;;
15488;SDS011;7846;48.830;9.116;2023-04-24T04:01:16;1.50;;;0.73;;
15488;SDS011;7846;48.830;9.116;2023-04-24T04:04:00;1.33;;;0.97;;
15488;SDS011;7846;48.830;9.116;2023-04-24T04:06:45;0.80;;;0.70;;
15488;SDS011;7846;48.830;9.116;2023-04-24T04:09:30;0.70;;;0.70;;
15488;SDS011;7846;48.830;9.116;2023-04-24T04:12:14;1.20;;;0.70;;
15488;SDS011;7846;48.830;9.116;2023-04-24T04:14:58;1.47;;;0.87;;
15488;SDS011;7846;48.830;9.116;2023-04-24T04:17:43;2.77;;;0.90;;
15488;SDS011;7846;48.830;9.116;2023-04-24T04:20:27;0.73;;;0.70;;
15488;SDS011;7846;48.830;9.116;2023-04-24T04:23:11;0.90;;;0.80;;
15488;SDS011;7846;48.830;9.116;2023-04-24T04:25:55;0.80;;;0.80;;
15488;SDS011;7846;48.830;9.116;2023-04-24T04:28:39;0.90;;;0.90;;
15488;SDS011;7846;48.830;9.116;2023-04-24T04:31:23;0.90;;;0.90;;
15488;SDS011;7846;48.830;9.116;2023-04-24T04:34:08;1.83;;;1.00;;
15488;SDS011;7846;48.830;9.116;2023-04-24T04:36:52;0.90;;;0.80;;
15488;SDS011;7846;48.830;9.116;2023-04-24T04:39:36;1.13;;;0.90;;
15488;SDS011;7846;48.830;9.116;2023-04-24T04:42:20;0.90;;;0.90;;
15488;SDS011;7846;48.830;9.116;2023-04-24T04:45:04;1.00;;;0.80;;
15488;SDS011;7846;48.830;9.116;2023-04-24T04:47:49;2.10;;;1.17;;
15488;SDS011;7846;48.830;9.116;2023-04-24T04:50:33;1.83;;;1.10;;
15488;SDS011;7846;48.830;9.116;2023-04-24T04:53:17;1.43;;;1.00;;
15488;SDS011;7846;48.830;9.116;2023-04-24T04:56:01;1.47;;;1.07;;
15488;SDS011;7846;48.830;9.116;2023-04-24T04:58:44;1.87;;;1.00;;
15488;SDS011;7846;48.830;9.116;2023-04-24T05:01:28;0.90;;;0.90;;
15488;SDS011;7846;48.830;9.116;2023-04-24T05:04:12;1.00;;;1.00;;
15488;SDS011;7846;48.830;9.116;2023-04-24T05:06:56;1.43;;;1.10;;
15488;SDS011;7846;48.830;9.116;2023-04-24T05:09:40;1.65;;;1.00;;
15488;SDS011;7846;48.830;9.116;2023-04-24T05:12:24;1.00;;;1.00;;
15488;SDS011;7846;48.830;9.116;2023-04-24T05:15:10;1.00;;;1.00;;
15488;SDS011;7846;48.830;9.116;2023-04-24T05:17:54;1.30;;;1.00;;
15488;SDS011;7846;48.830;9.116;2023-04-24T05:20:38;1.00;;;0.90;;
15488;SDS011;7846;48.830;9.116;2023-04-24T05:23:22;1.00;;;1.00;;
15488;SDS011;7846;48.830;9.116;2023-04-24T05:26:06;1.57;;;1.00;;
15488;SDS011;7846;48.830;9.116;2023-04-24T05:28:53;1.03;;;1.03;;
15488;SDS011;7846;48.830;9.116;2023-04-24T05:31:38;1.43;;;1.00;;
15488;SDS011;7846;48.830;9.116;2023-04-24T05:34:22;1.27;;;1.10;;
15488;SDS011;7846;48.830;9.116;2023-04-24T05:37:06;1.10;;;1.00;;
15488;SDS011;7846;48.830;9.116;2023-04-24T05:39:53;1.37;;;1.07;;
15488;SDS011;7846;48.830;9.116;2023-04-24T05:42:37;1.03;;;1.00;;
15488;SDS011;7846;48.830;9.116;2023-04-24T05:45:21;0.90;;;0.90;;
15488;SDS011;7846;48.830;9.116;2023-04-24T05:48:06;2.77;;;1.17;;
15488;SDS011;7846;48.830;9.116;2023-04-24T05:50:50;1.30;;;1.00;;
15488;SDS011;7846;48.830;9.116;2023-04-24T05:53:36;2.07;;;1.27;;
15488;SDS011;7846;48.830;9.116;2023-04-24T05:56:20;1.27;;;1.17;;
15488;SDS011;7846;48.830;9.116;2023-04-24T05:59:04;1.77;;;1.33;;
15488;SDS011;7846;48.830;9.116;2023-04-24T06:01:49;1.60;;;1.50;;
15488;SDS011;7846;48.830;9.116;2023-04-24T06:04:33;3.20;;;1.33;;
15488;SDS011;7846;48.830;9.116;2023-04-24T06:07:17;1.27;;;1.17;;
15488;SDS011;7846;48.830;9.116;2023-04-24T06:10:01;1.30;;;1.20;;
15488;SDS011;7846;48.830;9.116;2023-04-24T06:12:45;1.60;;;1.50;;
15488;SDS011;7846;48.830;9.116;2023-04-24T06:15:29;1.50;;;1.40;;
15488;SDS011;7846;48.830;9.116;2023-04-24T06:18:16;1.23;;;1.23;;
15488;SDS011;7846;48.830;9.116;2023-04-24T06:21:01;1.50;;;1.40;;
15488;SDS011;7846;48.830;9.116;2023-04-24T06:23:45;1.40;;;1.30;;
15488;SDS011;7846;48.830;9.116;2023-04-24T06:26:30;4.47;;;1.40;;
15488;SDS011;7846;48.830;9.116;2023-04-24T06:29:14;1.50;;;1.40;;
15488;SDS011;7846;48.830;9.116;2023-04-24T06:31:59;1.40;;;1.30;;
15488;SDS011;7846;48.830;9.116;2023-04-24T06:34:43;1.50;;;1.40;;
15488;SDS011;7846;48.830;9.116;2023-04-24T06:37:30;1.57;;;1.37;;
15488;SDS011;7846;48.830;9.116;2023-04-24T06:40:14;1.30;;;1.20;;
15488;SDS011;7846;48.830;9.116;2023-04-24T06:42:58;1.50;;;1.10;;
15488;SDS011;7846;48.830;9.116;2023-04-24T06:45:43;1.90;;;1.50;;
15488;SDS011;7846;48.830;9.116;2023-04-24T06:48:27;1.90;;;1.10;;
15488;SDS011;7846;48.830;9.116;2023-04-24T06:51:11;1.33;;;1.20;;
15488;SDS011;7846;48.830;9.116;2023-04-24T06:53:56;1.47;;;1.37;;
15488;SDS011;7846;48.830;9.116;2023-04-24T06:56:40;2.13;;;1.30;;
15488;SDS011;7846;48.830;9.116;2023-04-24T06:59:24;1.90;;;1.40;;
15488;SDS011;7846;48.830;9.116;2023-04-24T07:02:08;1.53;;;1.43;;
15488;SDS011;7846;48.830;9.116;2023-04-24T07:04:52;1.17;;;1.17;;
15488;SDS011;7846;48.830;9.116;2023-04-24T07:07:36;1.60;;;1.50;;
15488;SDS011;7846;48.830;9.116;2023-04-24T07:10:21;1.10;;;1.10;;
15488;SDS011;7846;48.830;9.116;2023-04-24T07:13:05;1.30;;;1.20;;
15488;SDS011;7846;48.830;9.116;2023-04-24T07:15:51;2.00;;;1.30;;
15488;SDS011;7846;48.830;9.116;2023-04-24T07:18:38;1.20;;;1.20;;
15488;SDS011;7846;48.830;9.116;2023-04-24T07:21:23;2.10;;;1.10;;
15488;SDS011;7846;48.830;9.116;2023-04-24T07:24:07;1.33;;;1.20;;
15488;SDS011;7846;48.830;9.116;2023-04-24T07:26:56;3.40;;;1.37;;
15488;SDS011;7846;48.830;9.116;2023-04-24T07:29:40;2.83;;;1.20;;
15488;SDS011;7846;48.830;9.116;2023-04-24T07:32:24;1.43;;;1.00;;
15488;SDS011;7846;48.830;9.116;2023-04-24T07:35:09;2.87;;;1.40;;
15488;SDS011;7846;48.830;9.116;2023-04-24T07:37:53;1.83;;;1.07;;
15488;SDS011;7846;48.830;9.116;2023-04-24T07:40:37;1.17;;;1.10;;
15488;SDS011;7846;48.830;9.116;2023-04-24T07:43:21;0.77;;;0.70;;
15488;SDS011;7846;48.830;9.116;2023-04-24T07:46:06;1.40;;;1.27;;
15488;SDS011;7846;48.830;9.116;2023-04-24T07:48:50;1.23;;;1.23;;
15488;SDS011;7846;48.830;9.116;2023-04-24T07:51:35;1.10;;;1.00;;
15488;SDS011;7846;48.830;9.116;2023-04-24T07:54:21;1.27;;;0.90;;
15488;SDS011;7846;48.830;9.116;2023-04-24T07:57:05;0.90;;;0.90;;
15488;SDS011;7846;48.830;9.116;2023-04-24T07:59:50;1.63;;;1.07;;
15488;SDS011;7846;48.830;9.116;2023-04-24T08:02:35;0.90;;;0.90;;
15488;SDS011;7846;48.830;9.116;2023-04-24T08:05:20;1.33;;;0.90;;
15488;SDS011;7846;48.830;9.116;2023-04-24T08:08:04;1.60;;;1.03;;
15488;SDS011;7846;48.830;9.116;2023-04-24T08:10:48;0.80;;;0.80;;
15488;SDS011;7846;48.830;9.116;2023-04-24T08:13:32;1.63;;;1.10;;
15488;SDS011;7846;48.830;9.116;2023-04-24T08:16:16;3.17;;;1.07;;
15488;SDS011;7846;48.830;9.116;2023-04-24T08:19:00;1.83;;;1.23;;
15488;SDS011;7846;48.830;9.116;2023-04-24T08:21:44;1.70;;;1.40;;
15488;SDS011;7846;48.830;9.116;2023-04-24T08:24:29;1.17;;;1.17;;
15488;SDS011;7846;48.830;9.116;2023-04-24T08:27:13;1.50;;;1.40;;
15488;SDS011;7846;48.830;9.116;2023-04-24T08:29:57;2.20;;;1.10;;
15488;SDS011;7846;48.830;9.116;2023-04-24T08:32:42;1.67;;;1.30;;
15488;SDS011;7846;48.830;9.116;2023-04-24T08:35:26;1.47;;;1.37;;
15488;SDS011;7846;48.830;9.116;2023-04-24T08:38:10;1.03;;;1.00;;
15488;SDS011;7846;48.830;9.116;2023-04-24T08:40:56;2.17;;;1.20;;
15488;SDS011;7846;48.830;9.116;2023-04-24T08:43:41;1.17;;;1.00;;
15488;SDS011;7846;48.830;9.116;2023-04-24T08:46:26;1.30;;;1.10;;
15488;SDS011;7846;48.830;9.116;2023-04-24T08:49:11;2.13;;;1.20;;
15488;SDS011;7846;48.830;9.116;2023-04-24T08:51:56;1.40;;;1.30;;
15488;SDS011;7846;48.830;9.116;2023-04-24T08:54:40;1.97;;;1.27;;
15488;SDS011;7846;48.830;9.116;2023-04-24T08:57:29;1.80;;;1.20;;
15488;SDS011;7846;48.830;9.116;2023-04-24T09:00:16;1.37;;;1.10;;
15488;SDS011;7846;48.830;9.116;2023-04-24T09:03:00;2.27;;;1.13;;
15488;SDS011;7846;48.830;9.116;2023-04-24T09:05:46;1.93;;;1.10;;
15488;SDS011;7846;48.830;9.116;2023-04-24T09:08:31;2.83;;;1.10;;
15488;SDS011;7846;48.830;9.116;2023-04-24T09:11:16;1.00;;;0.90;;
15488;SDS011;7846;48.830;9.116;2023-04-24T09:14:00;2.17;;;1.30;;
15488;SDS011;7846;48.830;9.116;2023-04-24T09:16:44;1.13;;;1.00;;
15488;SDS011;7846;48.830;9.116;2023-04-24T09:19:28;0.93;;;0.93;;
15488;SDS011;7846;48.830;9.116;2023-04-24T09:22:14;1.67;;;1.10;;
15488;SDS011;7846;48.830;9.116;2023-04-24T09:25:02;1.47;;;0.93;;
15488;SDS011;7846;48.830;9.116;2023-04-24T09:27:48;1.70;;;0.90;;
15488;SDS011;7846;48.830;9.116;2023-04-24T09:30:32;0.93;;;0.80;;
15488;SDS011;7846;48.830;9.116;2023-04-24T09:33:17;0.80;;;0.80;;
15488;SDS011;7846;48.830;9.116;2023-04-24T09:36:02;0.97;;;0.97;;
15488;SDS011;7846;48.830;9.116;2023-04-24T09:38:46;1.33;;;0.80;;
15488;SDS011;7846;48.830;9.116;2023-04-24T09:41:32;1.10;;;1.00;;
15488;SDS011;7846;48.830;9.116;2023-04-24T09:44:17;0.97;;;0.80;;
15488;SDS011;7846;48.830;9.116;2023-04-24T09:47:04;0.70;;;0.70;;
15488;SDS011;7846;48.830;9.116;2023-04-24T09:49:53;1.27;;;1.00;;
15488;SDS011;7846;48.830;9.116;2023-04-24T09:52:42;1.07;;;0.67;;
15488;SDS011;7846;48.830;9.116;2023-04-24T09:55:30;0.90;;;0.90;;
15488;SDS011;7846;48.830;9.116;2023-04-24T09:58:14;2.30;;;0.90;;
15488;SDS011;7846;48.830;9.116;2023-04-24T10:00:58;2.93;;;0.90;;
15488;SDS011;7846;48.830;9.116;2023-04-24T10:03:42;2.00;;;0.97;;
15488;SDS011;7846;48.830;9.116;2023-04-24T10:06:36;0.90;;;0.90;;
15488;SDS011;7846;48.830;9.116;2023-04-24T10:09:22;0.80;;;0.80;;
15488;SDS011;7846;48.830;9.116;2023-04-24T10:12:07;0.80;;;0.80;;
15488;SDS011;7846;48.830;9.116;2023-04-24T10:14:51;0.67;;;0.67;;
15488;SDS011;7846;48.830;9.116;2023-04-24T10:17:36;1.07;;;1.03;;
15488;SDS011;7846;48.830;9.116;2023-04-24T10:20:21;2.40;;;1.00;;
15488;SDS011;7846;48.830;9.116;2023-04-24T10:23:07;1.03;;;0.90;;
15488;SDS011;7846;48.830;9.116;2023-04-24T10:25:51;1.73;;;1.00;;
15488;SDS011;7846;48.830;9.116;2023-04-24T10:28:36;1.80;;;0.90;;
15488;SDS011;7846;48.830;9.116;2023-04-24T10:31:21;0.87;;;0.87;;
15488;SDS011;7846;48.830;9.116;2023-04-24T10:34:06;1.30;;;1.20;;
15488;SDS011;7846;48.830;9.116;2023-04-24T10:36:51;1.10;;;1.10;;
15488;SDS011;7846;48.830;9.116;2023-04-24T10:39:40;2.00;;;1.03;;
15488;SDS011;7846;48.830;9.116;2023-04-24T10:42:24;2.20;;;1.00;;
15488;SDS011;7846;48.830;9.116;2023-04-24T10:45:18;1.30;;;1.03;;
15488;SDS011;7846;48.830;9.116;2023-04-24T10:48:07;1.50;;;1.10;;
15488;SDS011;7846;48.830;9.116;2023-04-24T10:50:56;4.10;;;1.20;;
15488;SDS011;7846;48.830;9.116;2023-04-24T10:53:40;2.57;;;1.27;;
15488;SDS011;7846;48.830;9.116;2023-04-24T10:56:24;1.20;;;0.70;;
15488;SDS011;7846;48.830;9.116;2023-04-24T10:59:11;2.00;;;1.10;;
15488;SDS011;7846;48.830;9.116;2023-04-24T11:02:08;1.00;;;1.00;;
15488;SDS011;7846;48.830;9.116;2023-04-24T11:04:56;0.97;;;0.80;;
15488;SDS011;7846;48.830;9.116;2023-04-24T11:11:07;2.53;;;1.00;;
15488;SDS011;7846;48.830;9.116;2023-04-24T11:19:26;1.00;;;1.00;;
15488;SDS011;7846;48.830;9.116;2023-04-24T11:22:13;1.10;;;1.00;;
15488;SDS011;7846;48.830;9.116;2023-04-24T11:25:31;0.80;;;0.80;;
15488;SDS011;7846;48.830;9.116;2023-04-24T11:28:16;1.53;;;1.30;;
15488;SDS011;7846;48.830;9.116;2023-04-24T11:31:33;1.40;;;1.30;;
15488;SDS011;7846;48.830;9.116;2023-04-24T11:34:25;1.37;;;1.27;;
15488;SDS011;7846;48.830;9.116;2023-04-24T11:37:09;2.03;;;1.00;;
15488;SDS011;7846;48.830;9.116;2023-04-24T11:39:54;1.10;;;1.07;;
15488;SDS011;7846;48.830;9.116;2023-04-24T11:42:40;1.30;;;1.03;;
15488;SDS011;7846;48.830;9.116;2023-04-24T11:45:26;1.20;;;1.10;;
15488;SDS011;7846;48.830;9.116;2023-04-24T11:48:18;1.43;;;0.90;;
15488;SDS011;7846;48.830;9.116;2023-04-24T11:51:02;2.00;;;1.00;;
15488;SDS011;7846;48.830;9.116;2023-04-24T11:53:46;1.20;;;1.10;;
15488;SDS011;7846;48.830;9.116;2023-04-24T11:56:30;1.10;;;1.00;;
15488;SDS011;7846;48.830;9.116;2023-04-24T11:59:14;1.27;;;0.90;;
15488;SDS011;7846;48.830;9.116;2023-04-24T12:01:58;1.20;;;1.10;;
15488;SDS011;7846;48.830;9.116;2023-04-24T12:04:43;2.23;;;1.10;;
15488;SDS011;7846;48.830;9.116;2023-04-24T12:07:27;1.83;;;1.00;;
15488;SDS011;7846;48.830;9.116;2023-04-24T12:10:12;2.00;;;1.10;;
15488;SDS011;7846;48.830;9.116;2023-04-24T12:12:57;0.80;;;0.80;;
15488;SDS011;7846;48.830;9.116;2023-04-24T12:15:42;1.30;;;1.20;;
15488;SDS011;7846;48.830;9.116;2023-04-24T12:18:26;1.40;;;1.00;;
15488;SDS011;7846;48.830;9.116;2023-04-24T12:21:16;1.33;;;1.10;;
15488;SDS011;7846;48.830;9.116;2023-04-24T12:24:01;1.20;;;0.80;;
15488;SDS011;7846;48.830;9.116;2023-04-24T12:26:45;0.90;;;0.90;;
15488;SDS011;7846;48.830;9.116;2023-04-24T12:29:29;1.23;;;1.07;;
15488;SDS011;7846;48.830;9.116;2023-04-24T12:32:17;1.07;;;0.90;;
15488;SDS011;7846;48.830;9.116;2023-04-24T12:35:03;1.83;;;1.10;;
15488;SDS011;7846;48.830;9.116;2023-04-24T12:37:49;1.70;;;1.20;;
15488;SDS011;7846;48.830;9.116;2023-04-24T12:40:34;1.00;;;1.00;;
15488;SDS011;7846;48.830;9.116;2023-04-24T12:43:18;1.00;;;1.00;;
15488;SDS011;7846;48.830;9.116;2023-04-24T12:46:04;1.17;;;1.07;;
15488;SDS011;7846;48.830;9.116;2023-04-24T12:48:48;1.30;;;1.20;;
15488;SDS011;7846;48.830;9.116;2023-04-24T12:51:32;2.80;;;1.00;;
15488;SDS011;7846;48.830;9.116;2023-04-24T12:54:18;3.40;;;1.10;;
15488;SDS011;7846;48.830;9.116;2023-04-24T12:57:01;1.13;;;1.00;;
15488;SDS011;7846;48.830;9.116;2023-04-24T12:59:46;0.70;;;0.70;;
15488;SDS011;7846;48.830;9.116;2023-04-24T13:02:31;0.67;;;0.67;;
15488;SDS011;7846;48.830;9.116;2023-04-24T13:05:15;0.90;;;0.90;;
15488;SDS011;7846;48.830;9.116;2023-04-24T13:08:01;1.10;;;1.10;;
15488;SDS011;7846;48.830;9.116;2023-04-24T13:10:45;1.10;;;1.10;;
15488;SDS011;7846;48.830;9.116;2023-04-24T13:13:29;1.33;;;1.10;;
15488;SDS011;7846;48.830;9.116;2023-04-24T13:16:13;1.50;;;1.40;;
15488;SDS011;7846;48.830;9.116;2023-04-24T13:18:58;1.30;;;1.20;;
15488;SDS011;7846;48.830;9.116;2023-04-24T13:21:43;3.17;;;1.30;;
15488;SDS011;7846;48.830;9.116;2023-04-24T13:24:27;2.40;;;1.30;;
15488;SDS011;7846;48.830;9.116;2023-04-24T13:27:11;1.50;;;1.40;;
15488;SDS011;7846;48.830;9.116;2023-04-24T13:29:54;1.40;;;1.30;;
15488;SDS011;7846;48.830;9.116;2023-04-24T13:32:40;2.80;;;1.60;;
15488;SDS011;7846;48.830;9.116;2023-04-24T13:35:23;1.37;;;1.10;;
15488;SDS011;7846;48.830;9.116;2023-04-24T13:38:07;1.70;;;1.20;;
15488;SDS011;7846;48.830;9.116;2023-04-24T13:40:51;1.57;;;1.47;;
15488;SDS011;7846;48.830;9.116;2023-04-24T13:43:36;3.33;;;1.30;;
15488;SDS011;7846;48.830;9.116;2023-04-24T13:46:20;1.90;;;1.27;;
15488;SDS011;7846;48.830;9.116;2023-04-24T13:49:04;2.00;;;1.10;;
15488;SDS011;7846;48.830;9.116;2023-04-24T13:51:49;0.80;;;0.80;;
15488;SDS011;7846;48.830;9.116;2023-04-24T13:54:32;1.00;;;1.00;;
15488;SDS011;7846;48.830;9.116;2023-04-24T13:57:16;1.10;;;1.10;;
15488;SDS011;7846;48.830;9.116;2023-04-24T14:00:00;1.17;;;1.17;;
15488;SDS011;7846;48.830;9.116;2023-04-24T14:02:47;3.23;;;1.60;;
15488;SDS011;7846;48.830;9.116;2023-04-24T14:05:31;1.30;;;1.20;;
15488;SDS011;7846;48.830;9.116;2023-04-24T14:08:15;1.10;;;1.10;;
15488;SDS011;7846;48.830;9.116;2023-04-24T14:10:59;1.10;;;1.10;;
15488;SDS011;7846;48.830;9.116;2023-04-24T14:13:47;1.30;;;1.20;;
15488;SDS011;7846;48.830;9.116;2023-04-24T14:16:31;1.27;;;1.17;;
15488;SDS011;7846;48.830;9.116;2023-04-24T14:19:15;1.27;;;1.10;;
15488;SDS011;7846;48.830;9.116;2023-04-24T14:22:00;1.50;;;1.40;;
15488;SDS011;7846;48.830;9.116;2023-04-24T14:24:45;1.30;;;1.20;;
15488;SDS011;7846;48.830;9.116;2023-04-24T14:27:30;1.60;;;1.30;;
15488;SDS011;7846;48.830;9.116;2023-04-24T14:30:15;1.40;;;1.10;;
15488;SDS011;7846;48.830;9.116;2023-04-24T14:32:59;1.40;;;1.30;;
15488;SDS011;7846;48.830;9.116;2023-04-24T14:35:44;0.80;;;0.80;;
15488;SDS011;7846;48.830;9.116;2023-04-24T14:38:28;1.27;;;1.17;;
15488;SDS011;7846;48.830;9.116;2023-04-24T14:41:13;1.00;;;1.00;;
15488;SDS011;7846;48.830;9.116;2023-04-24T14:43:57;1.60;;;1.50;;
15488;SDS011;7846;48.830;9.116;2023-04-24T14:46:42;1.83;;;1.30;;
15488;SDS011;7846;48.830;9.116;2023-04-24T14:49:26;4.13;;;1.50;;
15488;SDS011;7846;48.830;9.116;2023-04-24T14:52:11;1.20;;;1.20;;
15488;SDS011;7846;48.830;9.116;2023-04-24T14:54:56;1.30;;;1.17;;
15488;SDS011;7846;48.830;9.116;2023-04-24T14:57:42;2.80;;;1.50;;
15488;SDS011;7846;48.830;9.116;2023-04-24T15:00:26;1.40;;;1.30;;
15488;SDS011;7846;48.830;9.116;2023-04-24T15:03:09;1.30;;;1.20;;
15488;SDS011;7846;48.830;9.116;2023-04-24T15:05:53;1.93;;;1.40;;
15488;SDS011;7846;48.830;9.116;2023-04-24T15:08:37;1.50;;;1.40;;
15488;SDS011;7846;48.830;9.116;2023-04-24T15:11:21;3.97;;;1.40;;
15488;SDS011;7846;48.830;9.116;2023-04-24T15:14:05;1.50;;;1.40;;
15488;SDS011;7846;48.830;9.116;2023-04-24T15:16:49;1.50;;;1.40;;
15488;SDS011;7846;48.830;9.116;2023-04-24T15:19:33;1.50;;;1.40;;
15488;SDS011;7846;48.830;9.116;2023-04-24T15:22:17;1.80;;;1.30;;
15488;SDS011;7846;48.830;9.116;2023-04-24T15:25:01;2.13;;;1.43;;
15488;SDS011;7846;48.830;9.116;2023-04-24T15:27:47;1.53;;;1.43;;
15488;SDS011;7846;48.830;9.116;2023-04-24T15:30:31;1.40;;;1.23;;
15488;SDS011;7846;48.830;9.116;2023-04-24T15:33:15;1.93;;;1.50;;
15488;SDS011;7846;48.830;9.116;2023-04-24T15:36:00;1.33;;;1.10;;
15488;SDS011;7846;48.830;9.116;2023-04-24T15:38:44;2.37;;;1.17;;
15488;SDS011;7846;48.830;9.116;2023-04-24T15:41:28;1.53;;;1.30;;
15488;SDS011;7846;48.830;9.116;2023-04-24T15:44:12;1.43;;;1.30;;
15488;SDS011;7846;48.830;9.116;2023-04-24T15:46:56;1.30;;;1.20;;
15488;SDS011;7846;48.830;9.116;2023-04-24T15:49:44;1.80;;;1.70;;
15488;SDS011;7846;48.830;9.116;2023-04-24T15:52:28;1.60;;;1.30;;
15488;SDS011;7846;48.830;9.116;2023-04-24T15:55:15;1.90;;;1.30;;
15488;SDS011;7846;48.830;9.116;2023-04-24T15:57:59;1.27;;;1.17;;
15488;SDS011;7846;48.830;9.116;2023-04-24T16:00:43;1.63;;;1.13;;
15488;SDS011;7846;48.830;9.116;2023-04-24T16:03:28;2.20;;;1.47;;
15488;SDS011;7846;48.830;9.116;2023-04-24T16:06:12;1.53;;;1.40;;
15488;SDS011;7846;48.830;9.116;2023-04-24T16:08:57;1.97;;;1.13;;
15488;SDS011;7846;48.830;9.116;2023-04-24T16:11:41;1.30;;;1.03;;
15488;SDS011;7846;48.830;9.116;2023-04-24T16:14:26;1.90;;;1.37;;
15488;SDS011;7846;48.830;9.116;2023-04-24T16:17:10;1.20;;;1.20;;
15488;SDS011;7846;48.830;9.116;2023-04-24T16:19:54;1.47;;;1.23;;
15488;SDS011;7846;48.830;9.116;2023-04-24T16:22:41;1.07;;;1.07;;
15488;SDS011;7846;48.830;9.116;2023-04-24T16:25:25;1.03;;;1.03;;
15488;SDS011;7846;48.830;9.116;2023-04-24T16:28:11;2.70;;;1.40;;
15488;SDS011;7846;48.830;9.116;2023-04-24T16:30:55;1.00;;;1.00;;
15488;SDS011;7846;48.830;9.116;2023-04-24T16:33:39;1.33;;;1.23;;
15488;SDS011;7846;48.830;9.116;2023-04-24T16:36:23;1.20;;;1.20;;
15488;SDS011;7846;48.830;9.116;2023-04-24T16:39:07;1.30;;;1.20;;
15488;SDS011;7846;48.830;9.116;2023-04-24T16:41:52;1.27;;;1.17;;
15488;SDS011;7846;48.830;9.116;2023-04-24T16:44:38;1.30;;;1.20;;
15488;SDS011;7846;48.830;9.116;2023-04-24T16:47:22;1.20;;;1.20;;
15488;SDS011;7846;48.830;9.116;2023-04-24T16:50:06;2.60;;;1.30;;
15488;SDS011;7846;48.830;9.116;2023-04-24T16:52:50;1.53;;;1.20;;
15488;SDS011;7846;48.830;9.116;2023-04-24T16:55:35;1.27;;;0.80;;